Time;durP1;ratioP1;P1;durP2;ratioP2;P2;SDS_P1;SDS_P2;PMS_P1;PMS_P2;Temp;Humidity;BMP_temperature;BMP_pressure;BME280_temperature;BME280_humidity;BME280_pressure;Samples;Min_cycle;Max_cycle;Signal;HPM_P1;HPM_P2
2022/12/01 00:00:36;;;;;;;112.32;53.08;;;5.30;99.90;;;;;;5055652;28;20056;-46
2022/12/01 00:03:02;;;;;;;121.43;55.03;;;5.30;99.90;;;;;;5056339;28;20430;-50
2022/12/01 00:05:27;;;;;;;112.82;51.15;;;5.30;99.90;;;;;;5056323;28;20103;-45
2022/12/01 00:07:53;;;;;;;113.65;51.72;;;5.30;99.90;;;;;;5055887;28;20380;-44
2022/12/01 00:10:24;;;;;;;124.68;53.70;;;5.30;99.90;;;;;;5055306;28;20132;-47
2022/12/01 00:12:51;;;;;;;127.03;56.00;;;5.40;99.90;;;;;;5056490;28;20090;-49
2022/12/01 00:15:17;;;;;;;111.07;53.17;;;5.30;99.90;;;;;;5056722;28;20049;-46
2022/12/01 00:17:44;;;;;;;121.28;54.72;;;5.40;99.90;;;;;;5055044;28;20444;-44
2022/12/01 00:20:10;;;;;;;124.20;55.80;;;5.40;99.90;;;;;;5051309;28;20048;-46
2022/12/01 00:22:36;;;;;;;117.32;54.03;;;5.40;99.90;;;;;;5056191;28;20040;-47
2022/12/01 00:25:02;;;;;;;119.95;53.47;;;5.30;99.90;;;;;;5056596;28;20047;-47
2022/12/01 00:27:27;;;;;;;115.22;53.42;;;5.30;99.90;;;;;;5056026;28;20082;-42
2022/12/01 00:29:53;;;;;;;114.13;51.72;;;5.30;99.90;;;;;;5056328;28;20044;-49
2022/12/01 00:32:18;;;;;;;122.88;54.95;;;5.30;99.90;;;;;;5055204;28;20090;-46
2022/12/01 00:34:44;;;;;;;123.28;52.60;;;5.30;99.90;;;;;;5055063;28;20063;-42
2022/12/01 00:37:10;;;;;;;118.35;51.92;;;5.30;99.90;;;;;;5055134;28;20048;-46
2022/12/01 00:39:35;;;;;;;123.13;53.83;;;5.20;99.90;;;;;;5055795;28;20407;-47
2022/12/01 00:42:01;;;;;;;124.03;53.95;;;5.30;99.90;;;;;;5043033;28;20041;-47
2022/12/01 00:44:26;;;;;;;128.93;56.47;;;5.20;99.90;;;;;;5056237;28;20075;-47
2022/12/01 00:46:52;;;;;;;124.25;53.78;;;5.30;99.90;;;;;;5055270;28;20044;-47
2022/12/01 00:49:18;;;;;;;126.57;53.50;;;5.20;99.90;;;;;;5054563;28;20055;-43
2022/12/01 00:51:43;;;;;;;123.75;50.70;;;5.20;99.90;;;;;;5055490;28;20053;-46
2022/12/01 00:54:09;;;;;;;125.80;51.67;;;5.10;99.90;;;;;;5045358;28;20825;-44
2022/12/01 00:56:34;;;;;;;129.73;56.50;;;5.20;99.90;;;;;;5055061;28;20076;-45
2022/12/01 00:59:00;;;;;;;120.80;52.22;;;5.10;99.90;;;;;;5055507;28;20363;-46
2022/12/01 01:01:26;;;;;;;120.03;52.97;;;5.00;99.90;;;;;;5055212;28;20398;-53
2022/12/01 01:03:51;;;;;;;128.18;54.05;;;5.10;99.90;;;;;;5054888;28;20040;-48
2022/12/01 01:06:17;;;;;;;124.65;55.42;;;5.00;99.90;;;;;;5054964;28;20055;-47
2022/12/01 01:08:42;;;;;;;127.47;54.38;;;5.00;99.90;;;;;;5055437;28;20079;-45
2022/12/01 01:11:08;;;;;;;130.55;54.90;;;5.00;99.90;;;;;;5053714;28;20048;-44
2022/12/01 01:13:35;;;;;;;129.88;54.80;;;5.00;99.90;;;;;;5055858;28;20052;-43
2022/12/01 01:16:07;;;;;;;121.13;51.25;;;5.00;99.90;;;;;;5055518;28;20498;-47
2022/12/01 01:18:33;;;;;;;132.23;56.28;;;5.10;99.90;;;;;;5054829;28;20054;-42
2022/12/01 01:21:06;;;;;;;125.20;55.03;;;5.00;99.90;;;;;;5051349;28;20040;-47
2022/12/01 01:23:32;;;;;;;;;;;5.00;99.90;;;;;;5059934;28;20064;-45
2022/12/01 01:26:10;;;;;;;126.47;51.95;;;5.00;99.90;;;;;;5059930;28;20019;-45
2022/12/01 01:28:36;;;;;;;131.07;54.55;;;5.10;99.90;;;;;;5059101;28;20076;-46
2022/12/01 01:31:05;;;;;;;128.73;53.45;;;5.00;99.90;;;;;;5059201;28;20140;-49
2022/12/01 01:33:31;;;;;;;125.82;54.08;;;5.20;99.90;;;;;;5059243;28;20080;-46
2022/12/01 01:36:00;;;;;;;132.10;54.53;;;5.00;99.90;;;;;;5059559;28;20123;-47
2022/12/01 01:38:27;;;;;;;141.27;57.78;;;5.10;99.90;;;;;;5058016;28;20059;-46
2022/12/01 01:40:53;;;;;;;127.07;57.03;;;5.10;99.90;;;;;;5053357;28;20095;-48
2022/12/01 01:43:41;;;;;;;127.05;53.53;;;5.20;99.90;;;;;;5052597;28;20128;-48
2022/12/01 01:46:09;;;;;;;116.75;51.40;;;5.10;99.90;;;;;;5058229;28;20044;-49
2022/12/01 01:48:37;;;;;;;125.50;50.75;;;5.10;99.90;;;;;;5058544;28;20048;-46
2022/12/01 01:51:04;;;;;;;118.35;49.75;;;5.10;99.90;;;;;;5058321;28;20051;-44
2022/12/01 01:53:30;;;;;;;106.30;49.92;;;5.10;99.90;;;;;;5048519;28;20037;-49
2022/12/01 01:55:56;;;;;;;109.80;48.55;;;5.10;99.90;;;;;;5059335;28;20045;-42
2022/12/01 01:58:22;;;;;;;112.65;51.92;;;5.20;99.90;;;;;;5058512;28;21283;-49
2022/12/01 02:00:48;;;;;;;123.85;52.92;;;5.10;99.90;;;;;;5058189;28;20040;-48
2022/12/01 02:03:17;;;;;;;117.93;52.20;;;5.10;99.90;;;;;;5058606;28;20466;-43
2022/12/01 02:05:43;;;;;;;123.10;53.53;;;5.10;99.90;;;;;;5058764;28;20052;-45
2022/12/01 02:08:11;;;;;;;106.75;48.70;;;5.10;99.90;;;;;;5057197;28;20504;-49
2022/12/01 02:10:42;;;;;;;118.25;50.83;;;5.10;99.90;;;;;;5058665;28;20040;-45
2022/12/01 02:13:53;;;;;;;115.47;52.38;;;5.00;99.90;;;;;;5057174;28;20051;-44
2022/12/01 02:16:23;;;;;;;112.60;49.92;;;5.10;99.90;;;;;;5058015;28;20036;-44
2022/12/01 02:19:32;;;;;;;121.60;52.20;;;5.00;99.90;;;;;;5057824;28;20113;-44
2022/12/01 02:22:40;;;;;;;120.88;51.17;;;4.90;99.90;;;;;;5058225;28;20044;-47
2022/12/01 02:25:20;;;;;;;112.60;49.95;;;5.00;99.90;;;;;;5056695;28;20047;-45
2022/12/01 02:28:17;;;;;;;128.82;54.15;;;5.00;99.90;;;;;;5057065;28;20550;-45
2022/12/01 02:30:57;;;;;;;122.10;50.75;;;4.90;99.90;;;;;;5057422;28;20421;-46
2022/12/01 02:33:35;;;;;;;131.85;52.72;;;5.00;99.90;;;;;;5057042;28;20041;-46
2022/12/01 02:36:04;;;;;;;114.07;50.70;;;4.90;99.90;;;;;;5044125;28;20052;-47
2022/12/01 02:38:59;;;;;;;122.70;50.60;;;5.00;99.90;;;;;;5057950;28;20071;-47
2022/12/01 02:41:47;;;;;;;113.50;50.45;;;5.00;99.90;;;;;;5046987;28;20053;-46
2022/12/01 02:44:20;;;;;;;110.95;50.60;;;5.00;99.90;;;;;;5044125;28;20090;-42
2022/12/01 02:47:09;;;;;;;114.00;49.95;;;5.00;99.90;;;;;;5056729;28;20052;-43
2022/12/01 02:49:40;;;;;;;116.78;50.10;;;5.00;99.90;;;;;;5055954;28;20490;-45
2022/12/01 02:52:06;;;;;;;109.65;48.63;;;5.00;99.90;;;;;;5055768;28;20040;-46
2022/12/01 02:54:32;;;;;;;120.18;52.75;;;5.00;99.90;;;;;;5057623;28;20137;-42
2022/12/01 02:56:58;;;;;;;113.50;52.60;;;5.00;99.90;;;;;;5056170;28;20076;-47
2022/12/01 02:59:24;;;;;;;118.40;52.58;;;5.10;99.90;;;;;;5057433;28;20120;-46
2022/12/01 03:02:28;;;;;;;109.43;50.40;;;5.00;99.90;;;;;;5051964;28;20098;-46
2022/12/01 03:05:09;;;;;;;120.93;50.05;;;5.10;99.90;;;;;;5055369;28;20497;-42
2022/12/01 03:07:43;;;;;;;115.30;50.03;;;5.10;99.90;;;;;;5055174;28;20041;-45
2022/12/01 03:10:28;;;;;;;112.07;50.22;;;5.10;99.90;;;;;;5057047;28;20501;-45
2022/12/01 03:13:21;;;;;;;111.30;48.33;;;5.00;99.90;;;;;;5057275;28;20052;-42
2022/12/01 03:16:07;;;;;;;113.38;50.75;;;5.10;99.90;;;;;;5057671;28;20350;-45
2022/12/01 03:18:42;;;;;;;116.72;50.60;;;5.10;99.90;;;;;;5045358;28;20389;-43
2022/12/01 03:21:40;;;;;;;120.00;51.42;;;5.00;99.90;;;;;;5052770;28;20052;-44
2022/12/01 03:24:14;;;;;;;113.05;50.53;;;5.00;99.90;;;;;;5056556;28;20052;-46
2022/12/01 03:26:40;;;;;;;;;;;5.00;99.90;;;;;;5056711;28;20106;-46
2022/12/01 03:29:16;;;;;;;117.07;50.05;;;5.00;99.90;;;;;;5056916;28;20414;-50
2022/12/01 03:31:49;;;;;;;114.57;50.58;;;5.10;99.90;;;;;;5056478;28;20094;-48
2022/12/01 03:34:31;;;;;;;122.68;53.97;;;5.00;99.90;;;;;;5057258;28;20507;-44
2022/12/01 03:37:03;;;;;;;136.18;53.55;;;5.00;99.90;;;;;;5056533;28;20036;-49
2022/12/01 03:39:32;;;;;;;120.03;53.25;;;5.00;99.90;;;;;;5057232;28;20037;-45
2022/12/01 03:42:08;;;;;;;111.95;52.83;;;5.10;99.90;;;;;;5054870;28;20120;-46
2022/12/01 03:45:01;;;;;;;112.78;51.97;;;5.00;99.90;;;;;;5056918;28;20044;-43
2022/12/01 03:47:31;;;;;;;113.97;48.20;;;5.10;99.90;;;;;;5055446;28;20460;-49
2022/12/01 03:49:59;;;;;;;110.13;47.00;;;5.10;99.90;;;;;;5056579;28;20508;-50
2022/12/01 03:53:06;;;;;;;109.68;47.47;;;5.00;99.90;;;;;;5068626;28;20424;-42
2022/12/01 03:55:38;;;;;;;114.88;47.55;;;5.00;99.90;;;;;;5054562;28;20089;-48
2022/12/01 03:58:20;;;;;;;109.07;49.60;;;4.90;99.90;;;;;;5055683;28;20048;-43
2022/12/01 04:00:48;;;;;;;109.13;47.17;;;4.90;99.90;;;;;;5055299;28;20166;-46
2022/12/01 04:03:22;;;;;;;111.35;48.70;;;4.90;99.90;;;;;;5056359;28;20048;-42
2022/12/01 04:05:47;;;;;;;111.22;49.08;;;5.00;99.90;;;;;;5056219;28;20163;-46
2022/12/01 04:08:13;;;;;;;108.13;47.15;;;4.90;99.90;;;;;;5055406;28;20139;-45
2022/12/01 04:10:39;;;;;;;105.60;48.58;;;4.90;99.90;;;;;;5056184;28;20162;-46
2022/12/01 04:13:04;;;;;;;108.68;48.30;;;4.80;99.90;;;;;;5056243;28;20463;-49
2022/12/01 04:15:30;;;;;;;108.97;48.72;;;4.80;99.90;;;;;;5056221;28;20462;-48
2022/12/01 04:17:56;;;;;;;106.25;47.50;;;4.90;99.90;;;;;;5056239;28;20090;-46
2022/12/01 04:20:21;;;;;;;108.93;47.60;;;4.90;99.90;;;;;;5054588;28;20635;-47
2022/12/01 04:22:47;;;;;;;112.18;47.13;;;4.80;99.90;;;;;;5056003;28;20544;-46
2022/12/01 04:25:13;;;;;;;108.13;47.33;;;4.80;99.90;;;;;;5056082;28;20047;-46
2022/12/01 04:27:39;;;;;;;108.93;46.55;;;4.80;99.90;;;;;;5055460;28;20479;-47
2022/12/01 04:30:06;;;;;;;99.63;43.75;;;4.70;99.90;;;;;;5054763;28;20363;-47
2022/12/01 04:32:39;;;;;;;97.50;43.47;;;4.80;99.90;;;;;;5055574;28;20595;-48
2022/12/01 04:35:06;;;;;;;88.72;44.47;;;4.70;99.90;;;;;;5055555;28;20768;-42
2022/12/01 04:37:32;;;;;;;117.45;50.45;;;4.60;99.90;;;;;;5054996;28;20139;-47
2022/12/01 04:39:58;;;;;;;122.40;54.97;;;4.60;99.90;;;;;;5053706;28;20040;-45
2022/12/01 04:42:23;;;;;;;117.47;52.28;;;4.60;99.90;;;;;;5043817;28;20080;-45
2022/12/01 04:44:49;;;;;;;107.82;49.22;;;4.50;99.90;;;;;;5053981;28;20056;-48
2022/12/01 04:47:15;;;;;;;114.65;49.63;;;4.50;99.90;;;;;;5054729;28;20099;-48
2022/12/01 04:49:41;;;;;;;121.50;52.05;;;4.60;99.90;;;;;;5055105;28;20731;-47
2022/12/01 04:52:07;;;;;;;122.63;51.65;;;4.40;99.90;;;;;;5054904;28;20127;-47
2022/12/01 04:54:32;;;;;;;120.47;52.08;;;4.50;99.90;;;;;;5056095;28;20045;-46
2022/12/01 04:56:58;;;;;;;133.07;56.88;;;4.40;99.90;;;;;;5058042;28;20171;-48
2022/12/01 04:59:24;;;;;;;126.45;52.42;;;4.60;99.90;;;;;;5062871;28;20383;-45
2022/12/01 05:01:49;;;;;;;124.43;50.63;;;4.50;99.90;;;;;;5055573;28;20080;-47
2022/12/01 05:04:15;;;;;;;131.10;55.30;;;4.50;99.90;;;;;;5062707;28;20639;-43
2022/12/01 05:06:41;;;;;;;128.50;55.10;;;4.60;99.90;;;;;;5060352;28;20123;-46
2022/12/01 05:09:08;;;;;;;127.43;54.95;;;4.70;99.90;;;;;;5062320;28;20080;-47
2022/12/01 05:11:34;;;;;;;125.15;50.30;;;4.80;99.90;;;;;;5061760;28;20405;-46
2022/12/01 05:14:00;;;;;;;121.45;49.50;;;4.70;99.90;;;;;;5062557;28;20351;-48
2022/12/01 05:16:28;;;;;;;116.15;49.85;;;4.70;99.90;;;;;;5061784;28;20040;-42
2022/12/01 05:21:41;;;;;;;118.30;50.97;;;4.70;99.90;;;;;;5061588;28;20048;-48
2022/12/01 05:24:08;;;;;;;127.47;53.47;;;4.70;99.90;;;;;;5061499;28;20072;-48
2022/12/01 05:26:34;;;;;;;121.25;53.35;;;4.80;99.90;;;;;;5060288;28;20052;-44
2022/12/01 05:29:00;;;;;;;116.05;50.60;;;4.70;99.90;;;;;;5061840;28;20524;-46
2022/12/01 05:31:26;;;;;;;104.60;48.13;;;4.80;99.90;;;;;;5062153;28;20103;-42
2022/12/01 05:33:51;;;;;;;107.13;47.63;;;4.80;99.90;;;;;;5062027;28;20072;-44
2022/12/01 05:36:17;;;;;;;106.60;47.50;;;4.90;99.90;;;;;;5061622;28;20105;-46
2022/12/01 05:38:42;;;;;;;113.25;46.97;;;4.90;99.90;;;;;;5061218;28;20036;-44
2022/12/01 05:41:09;;;;;;;104.57;46.80;;;4.90;99.90;;;;;;5053825;28;20153;-49
2022/12/01 05:43:34;;;;;;;105.65;46.67;;;4.90;99.90;;;;;;5057766;28;20047;-48
2022/12/01 05:46:00;;;;;;;110.57;45.42;;;4.80;99.90;;;;;;5061207;28;20040;-49
2022/12/01 05:48:26;;;;;;;107.63;47.55;;;4.90;99.90;;;;;;5061309;28;20055;-49
2022/12/01 05:50:52;;;;;;;118.15;48.42;;;4.90;99.90;;;;;;5061809;28;20087;-47
2022/12/01 05:53:18;;;;;;;114.15;48.03;;;4.80;99.90;;;;;;5061048;28;20116;-44
2022/12/01 05:55:44;;;;;;;118.32;49.08;;;4.90;99.90;;;;;;5061174;28;20040;-47
2022/12/01 05:58:10;;;;;;;108.25;47.30;;;4.80;99.90;;;;;;5061563;28;20147;-46
2022/12/01 06:00:37;;;;;;;117.90;50.75;;;4.90;99.90;;;;;;5061350;28;20072;-46
2022/12/01 06:03:03;;;;;;;115.80;50.90;;;4.80;99.90;;;;;;5061599;28;20050;-44
2022/12/01 06:05:29;;;;;;;119.25;53.28;;;4.90;99.90;;;;;;5062206;28;20120;-47
2022/12/01 06:07:55;;;;;;;128.60;52.20;;;4.80;99.90;;;;;;5058497;28;20045;-43
2022/12/01 06:10:20;;;;;;;121.13;52.20;;;5.00;99.90;;;;;;5056463;28;20398;-47
2022/12/01 06:12:46;;;;;;;126.00;55.25;;;5.00;99.90;;;;;;5058529;28;20164;-50
2022/12/01 06:15:12;;;;;;;127.43;53.25;;;5.00;99.90;;;;;;5058937;28;20045;-46
2022/12/01 06:17:39;;;;;;;112.28;51.85;;;5.00;99.90;;;;;;5057832;28;20048;-46
2022/12/01 06:20:05;;;;;;;130.32;53.28;;;4.90;99.90;;;;;;5058092;28;20055;-43
2022/12/01 06:22:31;;;;;;;129.18;53.55;;;4.90;99.90;;;;;;5056599;28;20047;-45
2022/12/01 06:24:57;;;;;;;112.22;49.85;;;4.90;99.90;;;;;;5058674;28;20052;-48
2022/12/01 06:27:23;;;;;;;125.07;50.88;;;5.00;99.90;;;;;;5058109;28;20044;-45
2022/12/01 06:29:48;;;;;;;115.57;50.38;;;5.00;99.90;;;;;;5057718;28;20049;-47
2022/12/01 06:32:15;;;;;;;128.70;52.90;;;4.90;99.90;;;;;;5058053;28;20037;-42
2022/12/01 06:34:42;;;;;;;129.38;52.22;;;4.80;99.90;;;;;;5058344;28;20040;-47
2022/12/01 06:37:08;;;;;;;126.97;53.47;;;4.90;99.90;;;;;;5057265;28;20049;-48
2022/12/01 06:39:34;;;;;;;110.18;49.55;;;4.80;99.90;;;;;;5057610;28;20500;-42
2022/12/01 06:41:59;;;;;;;120.78;48.30;;;4.90;99.90;;;;;;5045132;28;20045;-49
2022/12/01 06:44:25;;;;;;;126.57;48.88;;;4.80;99.90;;;;;;5058927;28;20205;-46
2022/12/01 06:46:51;;;;;;;118.80;49.50;;;4.80;99.90;;;;;;5055514;28;20040;-47
2022/12/01 06:49:18;;;;;;;131.60;52.90;;;4.80;99.90;;;;;;5057437;28;20433;-46
2022/12/01 06:51:45;;;;;;;119.55;49.15;;;4.70;99.90;;;;;;5057016;28;20153;-44
2022/12/01 06:54:11;;;;;;;112.35;47.25;;;4.70;99.90;;;;;;5047276;28;20052;-46
2022/12/01 06:56:37;;;;;;;100.80;44.33;;;4.60;99.90;;;;;;5056933;28;20090;-47
2022/12/01 06:59:03;;;;;;;103.80;46.75;;;4.60;99.90;;;;;;5058052;28;20048;-42
2022/12/01 07:01:28;;;;;;;119.72;47.53;;;4.60;99.90;;;;;;5057468;28;20098;-45
2022/12/01 07:03:54;;;;;;;97.68;45.83;;;4.40;99.90;;;;;;5058692;28;20109;-41
2022/12/01 07:06:20;;;;;;;108.45;47.72;;;4.40;99.90;;;;;;5058011;28;20080;-41
2022/12/01 07:08:46;;;;;;;111.13;46.30;;;4.30;99.90;;;;;;5058173;28;20527;-45
2022/12/01 07:11:14;;;;;;;106.75;44.85;;;4.20;99.90;;;;;;5057324;28;20045;-45
2022/12/01 07:13:41;;;;;;;102.97;43.13;;;4.10;99.90;;;;;;5056113;28;20083;-42
2022/12/01 07:16:08;;;;;;;102.75;44.70;;;4.00;99.90;;;;;;5056755;28;20147;-48
2022/12/01 07:18:35;;;;;;;114.05;48.35;;;4.10;99.90;;;;;;5057148;28;20457;-45
2022/12/01 07:21:06;;;;;;;128.57;52.58;;;3.90;99.90;;;;;;5056314;28;20115;-47
2022/12/01 07:23:32;;;;;;;116.00;48.53;;;3.80;99.90;;;;;;5055569;28;20547;-48
2022/12/01 07:26:04;;;;;;;115.90;49.72;;;3.70;99.90;;;;;;5056237;28;20407;-43
2022/12/01 07:28:29;;;;;;;105.63;48.30;;;3.70;99.90;;;;;;5056053;28;20403;-46
2022/12/01 07:31:05;;;;;;;121.00;49.33;;;3.70;99.90;;;;;;5056272;28;20037;-44
2022/12/01 07:33:31;;;;;;;117.25;46.90;;;3.60;99.90;;;;;;5055927;28;20224;-48
2022/12/01 07:35:57;;;;;;;109.75;46.17;;;3.60;99.90;;;;;;5056110;28;20048;-48
2022/12/01 07:38:23;;;;;;;104.47;44.13;;;3.60;99.90;;;;;;5057222;28;20044;-42
2022/12/01 07:40:48;;;;;;;110.68;48.70;;;3.60;99.90;;;;;;5050493;28;20494;-47
2022/12/01 07:43:14;;;;;;;88.68;38.20;;;3.50;99.90;;;;;;5048544;28;20040;-42
2022/12/01 07:45:40;;;;;;;102.20;41.83;;;3.40;99.90;;;;;;5047530;28;20192;-44
2022/12/01 07:48:05;;;;;;;102.78;43.33;;;3.40;99.90;;;;;;5039489;28;20569;-43
2022/12/01 07:50:31;;;;;;;97.18;40.85;;;3.30;99.90;;;;;;5042125;28;20047;-46
2022/12/01 07:52:57;;;;;;;85.50;39.53;;;3.30;99.90;;;;;;5035663;28;20494;-48
2022/12/01 07:55:22;;;;;;;87.80;40.45;;;3.30;99.90;;;;;;5043548;28;20347;-45
2022/12/01 07:57:48;;;;;;;85.72;37.97;;;3.30;99.90;;;;;;5054650;28;20085;-41
2022/12/01 08:00:14;;;;;;;75.35;32.75;;;3.30;99.90;;;;;;5053822;28;20424;-44
2022/12/01 08:02:40;;;;;;;78.07;34.80;;;3.20;99.90;;;;;;5055394;28;20123;-41
2022/12/01 08:05:05;;;;;;;65.63;31.30;;;3.20;99.90;;;;;;5053495;28;20403;-45
2022/12/01 08:07:31;;;;;;;74.60;34.53;;;3.20;99.90;;;;;;5054667;28;20047;-46
2022/12/01 08:09:57;;;;;;;61.22;29.55;;;3.30;99.90;;;;;;5055074;28;20127;-49
2022/12/01 08:12:22;;;;;;;49.10;23.52;;;3.30;99.90;;;;;;5051413;28;20476;-44
2022/12/01 08:14:48;;;;;;;85.05;27.33;;;3.20;99.90;;;;;;5066584;28;20053;-42
2022/12/01 08:17:14;;;;;;;62.88;29.67;;;3.20;99.90;;;;;;5035462;28;20057;-44
2022/12/01 08:19:39;;;;;;;59.33;29.30;;;3.10;99.90;;;;;;5037016;28;20045;-46
2022/12/01 08:22:05;;;;;;;87.35;36.63;;;3.10;99.90;;;;;;5037074;28;20037;-42
2022/12/01 08:24:30;;;;;;;107.30;41.28;;;3.20;99.90;;;;;;5035943;28;20060;-44
2022/12/01 08:26:56;;;;;;;109.38;41.70;;;3.20;99.90;;;;;;5038376;28;20539;-48
2022/12/01 08:29:22;;;;;;;97.47;43.03;;;3.30;99.90;;;;;;5039145;28;20041;-44
2022/12/01 08:31:47;;;;;;;89.90;43.60;;;3.30;99.90;;;;;;5053287;28;20461;-46
2022/12/01 08:34:14;;;;;;;97.20;47.40;;;3.30;99.90;;;;;;5050931;28;20090;-43
2022/12/01 08:36:39;;;;;;;95.50;44.30;;;3.40;99.90;;;;;;5053557;28;20032;-47
2022/12/01 08:39:07;;;;;;;87.28;38.72;;;3.30;99.90;;;;;;5054608;28;20150;-45
2022/12/01 08:41:33;;;;;;;88.45;38.70;;;3.30;99.90;;;;;;5055255;28;20049;-46
2022/12/01 08:43:59;;;;;;;84.10;38.88;;;3.30;99.90;;;;;;5054960;28;20120;-43
2022/12/01 08:46:34;;;;;;;94.43;40.70;;;3.40;99.90;;;;;;5053015;28;20044;-48
2022/12/01 08:49:01;;;;;;;97.15;43.50;;;3.30;99.90;;;;;;5054981;28;20041;-45
2022/12/01 08:51:27;;;;;;;111.80;46.92;;;3.40;99.90;;;;;;5055199;28;20067;-47
2022/12/01 08:53:54;;;;;;;103.15;44.55;;;3.50;99.90;;;;;;5055374;28;20131;-46
2022/12/01 08:56:26;;;;;;;94.45;42.28;;;3.40;99.90;;;;;;5054568;28;20579;-45
2022/12/01 08:58:53;;;;;;;96.80;41.97;;;3.60;99.90;;;;;;5053349;28;20325;-48
2022/12/01 09:01:19;;;;;;;93.13;43.42;;;3.80;99.90;;;;;;5054927;28;20119;-43
2022/12/01 09:03:45;;;;;;;102.78;44.83;;;3.90;99.90;;;;;;5054479;28;20052;-46
2022/12/01 09:06:19;;;;;;;102.88;44.13;;;3.90;99.90;;;;;;5054745;28;20112;-45
2022/12/01 09:08:45;;;;;;;109.15;45.85;;;4.00;99.90;;;;;;5063918;28;20597;-45
2022/12/01 09:11:14;;;;;;;91.50;42.45;;;4.10;99.90;;;;;;5059213;28;20497;-44
2022/12/01 09:13:41;;;;;;;94.22;42.40;;;4.10;99.90;;;;;;5055124;28;20051;-48
2022/12/01 09:16:10;;;;;;;92.70;43.85;;;4.20;99.90;;;;;;5053757;28;20044;-46
2022/12/01 09:18:36;;;;;;;80.40;40.25;;;4.20;99.90;;;;;;5054514;28;20040;-46
2022/12/01 09:21:12;;;;;;;83.03;39.17;;;4.30;99.90;;;;;;5054171;28;20040;-48
2022/12/01 09:23:38;;;;;;;80.55;38.17;;;4.30;99.90;;;;;;5054910;28;20452;-44
2022/12/01 09:26:05;;;;;;;77.78;37.88;;;4.30;99.90;;;;;;5053863;28;20374;-42
2022/12/01 09:28:30;;;;;;;86.28;38.53;;;4.40;99.90;;;;;;5054053;28;20041;-44
2022/12/01 09:31:06;;;;;;;76.97;36.67;;;4.30;99.90;;;;;;5055210;28;20539;-46
2022/12/01 09:33:32;;;;;;;79.53;38.92;;;4.40;99.90;;;;;;5054928;28;20557;-45
2022/12/01 09:35:59;;;;;;;77.35;38.70;;;4.50;99.90;;;;;;5054702;28;20040;-43
2022/12/01 09:38:27;;;;;;;74.38;37.88;;;4.50;99.90;;;;;;5055921;28;20091;-47
2022/12/01 09:40:52;;;;;;;78.68;37.33;;;4.60;99.90;;;;;;5048216;28;20394;-49
2022/12/01 09:43:23;;;;;;;71.85;37.05;;;4.60;99.90;;;;;;5050448;28;20040;-43
2022/12/01 09:46:01;;;;;;;67.05;35.17;;;4.70;99.90;;;;;;5054392;28;20486;-46
2022/12/01 09:48:42;;;;;;;66.25;33.72;;;4.60;99.90;;;;;;5058973;28;20036;-49
2022/12/01 09:51:13;;;;;;;74.47;36.28;;;4.70;99.90;;;;;;5058391;28;20430;-47
2022/12/01 09:53:40;;;;;;;65.32;33.22;;;4.80;99.90;;;;;;5056662;28;20380;-43
2022/12/01 09:56:19;;;;;;;64.63;34.10;;;4.80;99.90;;;;;;5058296;28;20581;-46
2022/12/01 09:58:46;;;;;;;60.63;32.45;;;4.90;99.90;;;;;;5053273;28;20183;-48
2022/12/01 10:01:17;;;;;;;62.90;32.80;;;4.90;99.90;;;;;;5055820;28;20045;-50
2022/12/01 10:03:49;;;;;;;56.55;31.85;;;4.90;99.90;;;;;;5056730;28;20120;-47
2022/12/01 10:06:18;;;;;;;55.15;30.60;;;5.10;99.90;;;;;;5056120;28;20079;-48
2022/12/01 10:09:03;;;;;;;55.22;30.25;;;5.00;99.90;;;;;;5058060;28;20047;-43
2022/12/01 10:11:39;;;;;;;52.70;29.50;;;5.10;99.90;;;;;;5057854;28;20418;-44
2022/12/01 10:14:11;;;;;;;54.50;28.27;;;5.10;99.90;;;;;;5058203;28;20048;-48
2022/12/01 10:17:02;;;;;;;38.72;24.65;;;5.20;99.90;;;;;;5057679;28;20078;-43
2022/12/01 10:19:34;;;;;;;40.75;23.83;;;5.30;99.90;;;;;;5057556;28;20529;-43
2022/12/01 10:22:35;;;;;;;45.90;26.42;;;5.30;99.90;;;;;;5056891;28;20080;-46
2022/12/01 10:25:15;;;;;;;36.83;22.92;;;5.30;99.90;;;;;;5046683;28;20041;-46
2022/12/01 10:27:54;;;;;;;40.45;24.58;;;5.40;99.90;;;;;;5058255;28;20119;-46
2022/12/01 10:30:22;;;;;;;38.97;24.50;;;5.40;99.90;;;;;;5057508;28;20071;-49
2022/12/01 10:33:00;;;;;;;39.53;24.95;;;5.50;99.90;;;;;;5057871;28;20146;-46
2022/12/01 10:35:34;;;;;;;38.78;25.58;;;5.50;99.90;;;;;;5057892;28;20044;-51
2022/12/01 10:38:05;;;;;;;36.55;22.77;;;5.60;99.90;;;;;;5058311;28;20053;-44
2022/12/01 10:40:34;;;;;;;32.20;21.98;;;5.60;99.90;;;;;;5054826;28;20113;-49
2022/12/01 10:43:01;;;;;;;32.83;23.23;;;5.60;99.90;;;;;;5048333;28;20128;-46
2022/12/01 10:45:32;;;;;;;35.97;21.35;;;5.60;99.90;;;;;;5057050;28;20059;-48
2022/12/01 10:48:17;;;;;;;34.83;21.48;;;5.70;99.90;;;;;;5057826;28;20048;-44
2022/12/01 10:50:55;;;;;;;32.25;21.60;;;5.70;99.90;;;;;;5057700;28;20061;-45
2022/12/01 10:53:30;;;;;;;34.85;22.30;;;5.80;99.90;;;;;;5057070;28;20510;-46
2022/12/01 10:56:04;;;;;;;29.67;20.30;;;5.80;99.90;;;;;;5057243;28;20040;-43
2022/12/01 10:58:52;;;;;;;31.10;20.90;;;5.80;99.90;;;;;;5058250;28;20761;-45
2022/12/01 11:01:25;;;;;;;29.00;20.75;;;5.90;99.90;;;;;;5057577;28;20053;-44
2022/12/01 11:03:56;;;;;;;29.90;20.13;;;5.80;99.90;;;;;;5058156;28;20284;-48
2022/12/01 11:06:26;;;;;;;27.05;19.48;;;5.90;99.90;;;;;;5057638;28;20126;-46
2022/12/01 11:08:57;;;;;;;27.02;18.63;;;5.90;99.90;;;;;;5057698;28;20040;-46
2022/12/01 11:11:59;;;;;;;28.33;19.98;;;6.00;99.90;;;;;;5058093;28;20071;-51
2022/12/01 11:14:50;;;;;;;27.48;18.63;;;6.00;99.90;;;;;;5052845;28;20053;-43
2022/12/01 11:17:25;;;;;;;30.10;19.20;;;6.00;99.90;;;;;;5057041;28;20147;-46
2022/12/01 11:19:50;;;;;;;31.20;20.90;;;6.00;99.90;;;;;;5048246;28;20064;-47
2022/12/01 11:22:28;;;;;;;29.00;19.00;;;6.00;99.90;;;;;;5055675;28;20091;-46
2022/12/01 11:24:56;;;;;;;28.75;20.35;;;6.00;99.90;;;;;;5057935;28;20482;-45
2022/12/01 11:27:29;;;;;;;27.38;19.95;;;6.00;99.90;;;;;;5057251;28;20109;-47
2022/12/01 11:29:59;;;;;;;27.55;19.23;;;6.10;99.90;;;;;;5057470;28;20487;-43
2022/12/01 11:32:31;;;;;;;25.17;18.92;;;6.10;99.90;;;;;;5057232;28;20056;-47
2022/12/01 11:35:13;;;;;;;26.73;19.00;;;6.10;99.90;;;;;;5057215;28;20502;-49
2022/12/01 11:37:45;;;;;;;29.25;20.63;;;6.20;99.90;;;;;;5044335;28;20048;-43
2022/12/01 11:40:25;;;;;;;30.25;22.42;;;6.20;99.90;;;;;;5057231;28;20048;-46
2022/12/01 11:42:55;;;;;;;28.58;20.00;;;6.20;99.90;;;;;;5048368;28;20044;-47
2022/12/01 11:45:20;;;;;;;26.55;20.63;;;6.30;99.90;;;;;;5055524;28;20045;-45
2022/12/01 11:48:01;;;;;;;25.58;20.25;;;6.30;99.90;;;;;;5056388;28;20484;-46
2022/12/01 11:50:30;;;;;;;26.33;18.77;;;6.30;99.90;;;;;;5056627;28;20498;-50
2022/12/01 11:52:56;;;;;;;22.60;16.88;;;6.30;99.90;;;;;;5047919;28;20059;-48
2022/12/01 11:55:24;;;;;;;25.65;18.35;;;6.30;99.90;;;;;;5086943;28;20250;-48
2022/12/01 11:57:53;;;;;;;27.88;18.42;;;6.20;99.90;;;;;;5056721;28;20516;-42
2022/12/01 12:00:24;;;;;;;26.38;18.55;;;6.20;99.90;;;;;;5055687;28;20048;-48
2022/12/01 12:03:19;;;;;;;24.20;19.10;;;6.20;99.90;;;;;;5056301;28;20036;-49
2022/12/01 12:05:47;;;;;;;25.25;18.38;;;6.20;99.90;;;;;;5055760;28;20048;-47
2022/12/01 12:08:34;;;;;;;25.65;19.23;;;6.20;99.90;;;;;;5056458;28;20041;-43
2022/12/01 12:11:22;;;;;;;20.98;17.40;;;6.20;99.90;;;;;;5056276;28;20123;-49
2022/12/01 12:14:16;;;;;;;22.27;16.73;;;6.20;99.90;;;;;;5046253;28;20040;-45
2022/12/01 12:17:18;;;;;;;23.95;16.55;;;6.30;99.90;;;;;;5042550;28;20045;-46
2022/12/01 12:19:47;;;;;;;23.38;17.02;;;6.40;99.90;;;;;;5033473;28;20095;-43
2022/12/01 12:22:15;;;;;;;23.35;17.23;;;6.50;99.90;;;;;;5055051;28;20422;-49
2022/12/01 12:24:59;;;;;;;22.92;16.80;;;6.60;99.90;;;;;;5056419;28;20139;-46
2022/12/01 12:27:30;;;;;;;25.90;18.52;;;6.60;99.90;;;;;;5056428;28;20060;-46
2022/12/01 12:30:05;;;;;;;24.95;18.83;;;6.70;99.90;;;;;;5056674;28;20044;-43
2022/12/01 12:32:40;;;;;;;22.98;18.33;;;6.80;99.90;;;;;;5054540;28;20044;-48
2022/12/01 12:35:31;;;;;;;25.52;19.10;;;6.90;99.90;;;;;;5055650;28;20528;-43
2022/12/01 12:38:24;;;;;;;25.35;18.50;;;7.00;99.90;;;;;;5056364;28;20074;-49
2022/12/01 12:41:08;;;;;;;23.30;17.70;;;7.00;99.90;;;;;;5050513;28;20045;-47
2022/12/01 12:43:47;;;;;;;22.67;18.67;;;7.10;99.90;;;;;;5051117;28;20072;-43
2022/12/01 12:46:26;;;;;;;25.70;19.27;;;7.10;99.90;;;;;;5054584;28;20059;-43
2022/12/01 12:49:06;;;;;;;23.67;18.20;;;7.00;99.90;;;;;;5055042;28;20048;-46
2022/12/01 12:51:41;;;;;;;21.73;16.75;;;7.10;99.90;;;;;;5055838;28;20047;-42